createdAt,value
2022-08-03T00:00:49.536Z,21.62
2022-08-03T00:01:22.971Z,21.6
2022-08-03T00:02:23.300Z,21.58
2022-08-03T00:03:23.035Z,21.57
2022-08-03T00:04:33.622Z,21.58
2022-08-03T00:05:23.038Z,21.55
2022-08-03T00:06:23.013Z,21.52
2022-08-03T00:07:23.238Z,21.5
2022-08-03T00:08:23.040Z,21.51
2022-08-03T00:09:22.880Z,21.51
2022-08-03T00:10:22.960Z,21.51
2022-08-03T00:11:22.931Z,21.52
2022-08-03T00:12:23.311Z,21.53
2022-08-03T00:13:22.966Z,21.53
2022-08-03T00:14:23.009Z,21.54
2022-08-03T00:15:25.933Z,21.52
2022-08-03T00:16:23.164Z,21.52
2022-08-03T00:17:23.366Z,21.5
2022-08-03T00:18:22.956Z,21.49
2022-08-03T00:19:22.906Z,21.49
2022-08-03T00:20:23.090Z,21.46
2022-08-03T00:21:22.890Z,21.42
2022-08-03T00:22:23.311Z,21.41
2022-08-03T00:23:22.940Z,21.42
2022-08-03T00:24:22.958Z,21.39
2022-08-03T00:25:22.880Z,21.37
2022-08-03T00:26:25.945Z,21.33
2022-08-03T00:27:23.235Z,21.32
2022-08-03T00:28:23.045Z,21.31
2022-08-03T00:29:22.977Z,21.29
2022-08-03T00:30:22.923Z,21.26
2022-08-03T00:31:37.990Z,21.24
2022-08-03T00:32:24.741Z,21.23
2022-08-03T00:33:22.983Z,21.22
2022-08-03T00:34:34.573Z,21.2
2022-08-03T00:35:36.883Z,21.19
2022-08-03T00:36:23.010Z,21.18
2022-08-03T00:37:41.060Z,21.15
2022-08-03T00:38:22.961Z,21.12
2022-08-03T00:39:23.016Z,21.16
2022-08-03T00:40:23.068Z,21.14
2022-08-03T00:41:22.942Z,21.14
2022-08-03T00:42:22.886Z,21.14
2022-08-03T00:43:23.021Z,21.13
2022-08-03T00:44:22.926Z,21.13
2022-08-03T00:45:22.981Z,21.13
2022-08-03T00:46:23.022Z,21.14
2022-08-03T00:47:23.231Z,21.12
2022-08-03T00:48:32.969Z,21.11
2022-08-03T00:49:23.006Z,21.09
2022-08-03T00:50:23.033Z,21.06
2022-08-03T00:51:23.077Z,21.06
2022-08-03T00:52:23.268Z,21.06
2022-08-03T00:53:23.026Z,21.05
2022-08-03T00:54:23.018Z,21.03
2022-08-03T00:55:23.009Z,21.03
2022-08-03T00:56:23.056Z,21.01
2022-08-03T00:57:23.301Z,21.01
2022-08-03T00:58:23.083Z,21.03
2022-08-03T00:59:26.002Z,21.02
2022-08-03T01:00:23.082Z,21.01
2022-08-03T01:01:23.009Z,20.99
2022-08-03T01:02:23.308Z,20.97
2022-08-03T01:03:23.061Z,20.95
2022-08-03T01:04:23.018Z,20.91
2022-08-03T01:05:22.954Z,20.91
2022-08-03T01:06:22.889Z,20.92
2022-08-03T01:07:23.312Z,20.93
2022-08-03T01:08:23.054Z,20.93
2022-08-03T01:09:23.011Z,20.92
2022-08-03T01:10:25.933Z,20.9
2022-08-03T01:11:22.928Z,20.91
2022-08-03T01:12:23.306Z,20.91
2022-08-03T01:13:59.882Z,20.91
2022-08-03T01:14:22.968Z,20.9
2022-08-03T01:15:22.959Z,20.86
2022-08-03T01:16:22.873Z,20.83
2022-08-03T01:17:23.365Z,20.82
2022-08-03T01:18:23.076Z,20.8
2022-08-03T01:19:22.992Z,20.77
2022-08-03T01:20:23.096Z,20.76
2022-08-03T01:21:25.927Z,20.75
2022-08-03T01:22:23.231Z,20.76
2022-08-03T01:23:22.962Z,20.77
2022-08-03T01:24:23.087Z,20.73
2022-08-03T01:25:22.973Z,20.73
2022-08-03T01:26:22.982Z,20.73
2022-08-03T01:27:23.272Z,20.71
2022-08-03T01:28:23.078Z,20.72
2022-08-03T01:29:22.862Z,20.72
2022-08-03T01:30:22.893Z,20.71
2022-08-03T01:31:22.983Z,20.71
2022-08-03T01:33:02.618Z,20.67
2022-08-03T01:33:23.067Z,20.64
2022-08-03T01:34:23.085Z,20.61
2022-08-03T01:35:23.036Z,20.62
2022-08-03T01:36:23.109Z,20.61
2022-08-03T01:37:23.239Z,20.6
2022-08-03T01:38:22.986Z,20.61
2022-08-03T01:39:22.969Z,20.6
2022-08-03T01:40:22.978Z,20.59
2022-08-03T01:41:22.938Z,20.59
2022-08-03T01:42:23.299Z,20.57
2022-08-03T01:44:28.487Z,20.56
2022-08-03T01:44:29.786Z,20.54
2022-08-03T01:45:22.969Z,20.53
2022-08-03T01:46:23.007Z,20.52
2022-08-03T01:47:23.366Z,20.5
2022-08-03T01:48:23.048Z,20.49
2022-08-03T01:49:23.000Z,20.47
2022-08-03T01:50:23.078Z,20.48
2022-08-03T01:51:23.024Z,20.47
2022-08-03T01:52:23.241Z,20.46
2022-08-03T01:53:23.035Z,20.45
2022-08-03T01:54:25.978Z,20.46
2022-08-03T01:55:23.079Z,20.46
2022-08-03T01:56:23.051Z,20.44
2022-08-03T01:57:23.313Z,20.44
2022-08-03T01:58:23.028Z,20.41
2022-08-03T01:59:23.008Z,20.4
2022-08-03T02:00:22.970Z,20.39
2022-08-03T02:01:23.018Z,20.36
2022-08-03T02:02:32.794Z,20.32
2022-08-03T02:03:23.068Z,20.29
2022-08-03T02:04:22.970Z,20.3
2022-08-03T02:05:23.014Z,20.29
2022-08-03T02:06:59.841Z,20.28
2022-08-03T02:07:23.361Z,20.27
2022-08-03T02:08:23.051Z,20.24
2022-08-03T02:09:23.014Z,20.21
2022-08-03T02:10:34.660Z,20.2
2022-08-03T02:11:22.859Z,20.21
2022-08-03T02:12:23.300Z,20.19
2022-08-03T02:13:23.043Z,20.19
2022-08-03T02:14:23.003Z,20.21
2022-08-03T02:15:22.965Z,20.19
2022-08-03T02:16:22.961Z,20.14
2022-08-03T02:17:39.124Z,20.11
2022-08-03T02:18:22.992Z,20.09
2022-08-03T02:19:22.881Z,20.09
2022-08-03T02:20:23.010Z,20.08
2022-08-03T02:21:56.829Z,20.09
2022-08-03T02:22:23.233Z,20.08
2022-08-03T02:23:22.879Z,20.07
2022-08-03T02:24:22.989Z,20.08
2022-08-03T02:25:22.987Z,20.08
2022-08-03T02:26:22.983Z,20.07
2022-08-03T02:27:23.244Z,20.05
2022-08-03T02:28:23.019Z,20.04
2022-08-03T02:29:39.492Z,20.05
2022-08-03T02:30:22.949Z,20.05
2022-08-03T02:31:23.033Z,20.04
2022-08-03T02:32:28.927Z,20.04
2022-08-03T02:33:22.981Z,20.02
2022-08-03T02:34:23.006Z,20.01
2022-08-03T02:35:22.948Z,20.01
2022-08-03T02:36:22.882Z,20.01
2022-08-03T02:37:23.306Z,19.99
2022-08-03T02:38:22.863Z,19.97
2022-08-03T02:39:23.031Z,19.97
2022-08-03T02:40:22.892Z,19.95
2022-08-03T02:41:22.854Z,19.94
2022-08-03T02:42:23.240Z,19.92
2022-08-03T02:43:25.944Z,19.93
2022-08-03T02:44:22.939Z,19.94
2022-08-03T02:45:22.876Z,19.92
2022-08-03T02:46:23.009Z,19.93
2022-08-03T02:47:23.239Z,19.95
2022-08-03T02:48:23.035Z,19.93
2022-08-03T02:49:42.617Z,19.91
2022-08-03T02:50:23.141Z,19.89
2022-08-03T02:51:23.080Z,19.89
2022-08-03T02:52:23.530Z,19.88
2022-08-03T02:53:23.094Z,19.86
2022-08-03T02:54:25.993Z,19.85
2022-08-03T02:55:23.093Z,19.84
2022-08-03T02:56:22.984Z,19.82
2022-08-03T02:57:23.263Z,19.81
2022-08-03T02:58:23.089Z,19.79
2022-08-03T02:59:23.017Z,19.78
2022-08-03T03:00:27.494Z,19.77
2022-08-03T03:01:23.088Z,19.75
2022-08-03T03:02:23.228Z,19.73
2022-08-03T03:03:23.065Z,19.71
2022-08-03T03:04:22.972Z,19.69
2022-08-03T03:05:55.557Z,19.67
2022-08-03T03:06:23.032Z,19.66
2022-08-03T03:07:23.308Z,19.63
2022-08-03T03:08:25.977Z,19.6
2022-08-03T03:09:22.975Z,19.58
2022-08-03T03:10:22.971Z,19.56
2022-08-03T03:11:22.852Z,19.56
2022-08-03T03:12:23.352Z,19.56
2022-08-03T03:13:23.099Z,19.56
2022-08-03T03:14:33.861Z,19.56
2022-08-03T03:15:23.028Z,19.54
2022-08-03T03:16:25.955Z,19.52
2022-08-03T03:17:23.230Z,19.53
2022-08-03T03:18:23.213Z,19.53
2022-08-03T03:19:23.020Z,19.52
2022-08-03T03:20:29.068Z,19.53
2022-08-03T03:21:22.884Z,19.52
2022-08-03T03:22:23.233Z,19.52
2022-08-03T03:23:22.975Z,19.49
2022-08-03T03:24:22.881Z,19.49
2022-08-03T03:25:23.037Z,19.46
2022-08-03T03:26:23.016Z,19.46
2022-08-03T03:27:28.914Z,19.48
2022-08-03T03:28:23.069Z,19.45
2022-08-03T03:29:23.068Z,19.44
2022-08-03T03:30:23.068Z,19.46
2022-08-03T03:31:23.022Z,19.49
2022-08-03T03:32:23.232Z,19.49
2022-08-03T03:33:22.987Z,19.46
2022-08-03T03:34:22.978Z,19.45
2022-08-03T03:35:22.894Z,19.45
2022-08-03T03:36:23.019Z,19.46
2022-08-03T03:37:23.302Z,19.45
2022-08-03T03:38:25.994Z,19.44
2022-08-03T03:39:23.065Z,19.43
2022-08-03T03:40:22.933Z,19.41
2022-08-03T03:41:22.857Z,19.42
2022-08-03T03:42:23.313Z,19.4
2022-08-03T03:43:23.141Z,19.4
2022-08-03T03:44:23.014Z,19.4
2022-08-03T03:45:23.019Z,19.39
2022-08-03T03:46:22.961Z,19.38
2022-08-03T03:47:32.353Z,19.4
2022-08-03T03:48:22.966Z,19.4
2022-08-03T03:49:26.079Z,19.41
2022-08-03T03:50:23.088Z,19.43
2022-08-03T03:51:23.064Z,19.44
2022-08-03T03:52:23.234Z,19.45
2022-08-03T03:53:23.086Z,19.45
2022-08-03T03:54:25.580Z,19.42
2022-08-03T03:55:23.007Z,19.43
2022-08-03T03:56:23.006Z,19.42
2022-08-03T03:57:23.238Z,19.42
2022-08-03T03:58:22.945Z,19.42
2022-08-03T03:59:22.993Z,19.44
2022-08-03T04:00:26.015Z,19.44
2022-08-03T04:01:23.112Z,19.43
2022-08-03T04:02:23.306Z,19.43
2022-08-03T04:03:22.998Z,19.42
2022-08-03T04:04:22.953Z,19.42
2022-08-03T04:05:22.995Z,19.42
2022-08-03T04:06:22.859Z,19.43
2022-08-03T04:07:23.303Z,19.44
2022-08-03T04:08:22.982Z,19.45
2022-08-03T04:09:22.989Z,19.48
2022-08-03T04:10:23.014Z,19.48
2022-08-03T04:11:31.047Z,19.47
2022-08-03T04:12:23.237Z,19.46
2022-08-03T04:13:23.082Z,19.49
2022-08-03T04:14:23.041Z,19.49
2022-08-03T04:15:23.021Z,19.5
2022-08-03T04:16:23.052Z,19.5
2022-08-03T04:17:23.232Z,19.52
2022-08-03T04:18:22.989Z,19.56
2022-08-03T04:19:23.543Z,19.56
2022-08-03T04:20:23.096Z,19.56
2022-08-03T04:21:22.948Z,19.53
2022-08-03T04:22:28.859Z,19.53
2022-08-03T04:23:23.079Z,19.54
2022-08-03T04:24:23.045Z,19.58
2022-08-03T04:25:22.958Z,19.59
2022-08-03T04:26:22.861Z,19.61
2022-08-03T04:27:23.307Z,19.61
2022-08-03T04:28:30.578Z,19.63
2022-08-03T04:29:23.079Z,19.65
2022-08-03T04:30:22.970Z,19.65
2022-08-03T04:31:23.000Z,19.67
2022-08-03T04:32:23.226Z,19.67
2022-08-03T04:33:25.984Z,19.69
2022-08-03T04:34:23.069Z,19.71
2022-08-03T04:35:22.992Z,19.71
2022-08-03T04:36:22.946Z,19.75
2022-08-03T04:37:23.300Z,19.77
2022-08-03T04:38:22.932Z,19.78
2022-08-03T04:39:22.987Z,19.8
2022-08-03T04:40:23.088Z,19.81
2022-08-03T04:41:22.925Z,19.82
2022-08-03T04:42:23.300Z,19.86
2022-08-03T04:43:22.986Z,19.88
2022-08-03T04:44:28.301Z,19.88
2022-08-03T04:45:23.039Z,19.9
2022-08-03T04:46:23.021Z,19.92
2022-08-03T04:47:23.309Z,19.93
2022-08-03T04:48:23.047Z,19.97
2022-08-03T04:49:23.011Z,20
2022-08-03T04:50:22.968Z,20.01
2022-08-03T04:51:23.005Z,20.05
2022-08-03T04:52:23.251Z,20.07
2022-08-03T04:53:23.311Z,20.08
2022-08-03T04:54:23.076Z,20.07
2022-08-03T04:55:25.910Z,20.09
2022-08-03T04:56:23.077Z,20.11
2022-08-03T04:57:23.650Z,20.08
2022-08-03T04:58:22.938Z,20.08
2022-08-03T04:59:23.002Z,20.09
2022-08-03T05:00:23.048Z,20.12
2022-08-03T05:01:23.124Z,20.15
2022-08-03T05:02:23.002Z,20.17
2022-08-03T05:03:24.491Z,20.17
2022-08-03T05:04:22.848Z,20.17
2022-08-03T05:05:22.846Z,20.19
2022-08-03T05:06:25.982Z,20.21
2022-08-03T05:07:25.137Z,20.21
2022-08-03T05:08:27.757Z,20.25
2022-08-03T05:09:39.591Z,20.26
2022-08-03T05:10:23.019Z,20.28
2022-08-03T05:11:22.920Z,20.27
2022-08-03T05:12:23.267Z,20.27
2022-08-03T05:13:22.960Z,20.3
2022-08-03T05:14:27.959Z,20.31
2022-08-03T05:15:23.055Z,20.31
2022-08-03T05:16:23.002Z,20.33
2022-08-03T05:17:28.865Z,20.34
2022-08-03T05:18:23.051Z,20.39
2022-08-03T05:19:22.884Z,20.41
2022-08-03T05:20:22.941Z,20.44
2022-08-03T05:21:22.887Z,20.47
2022-08-03T05:22:23.233Z,20.5
2022-08-03T05:23:22.892Z,20.54
2022-08-03T05:24:22.965Z,20.59
2022-08-03T05:25:27.325Z,20.61
2022-08-03T05:26:23.026Z,20.62
2022-08-03T05:27:22.960Z,20.64
2022-08-03T05:28:25.936Z,20.65
2022-08-03T05:29:23.028Z,20.66
2022-08-03T05:30:29.787Z,20.68
2022-08-03T05:31:22.968Z,20.73
2022-08-03T05:32:23.228Z,20.75
2022-08-03T05:33:23.043Z,20.8
2022-08-03T05:34:23.006Z,20.83
2022-08-03T05:36:02.728Z,20.89
2022-08-03T05:36:23.060Z,20.92
2022-08-03T05:37:23.230Z,20.96
2022-08-03T05:38:28.572Z,20.95
2022-08-03T05:39:25.981Z,20.99
2022-08-03T05:40:23.053Z,21.03
2022-08-03T05:41:36.610Z,21.09
2022-08-03T05:42:23.327Z,21.13
2022-08-03T05:43:23.080Z,21.19
2022-08-03T05:44:23.084Z,21.25
2022-08-03T05:45:27.918Z,21.33
2022-08-03T05:46:22.877Z,21.43
2022-08-03T05:47:23.305Z,21.51
2022-08-03T05:48:22.968Z,21.76
2022-08-03T05:49:22.965Z,22.86
2022-08-03T05:50:25.954Z,24.81
2022-08-03T05:51:23.003Z,26.81
2022-08-03T05:52:23.650Z,28.39
2022-08-03T05:53:23.039Z,29.5
2022-08-03T05:54:23.009Z,30.07
2022-08-03T05:55:23.002Z,31.09
2022-08-03T05:56:22.966Z,31.97
2022-08-03T05:57:23.310Z,31.94
2022-08-03T05:58:23.024Z,32.23
2022-08-03T05:59:38.244Z,32.99
2022-08-03T06:00:22.907Z,33.85
2022-08-03T06:01:26.004Z,34.32
2022-08-03T06:02:23.243Z,35.24
2022-08-03T06:03:23.074Z,35.33
2022-08-03T06:04:22.882Z,35.54
2022-08-03T06:05:22.983Z,35.82
2022-08-03T06:06:22.946Z,36.1
2022-08-03T06:07:23.229Z,36.34
2022-08-03T06:08:22.963Z,36.46
2022-08-03T06:09:23.061Z,37.02
2022-08-03T06:10:36.189Z,37.25
2022-08-03T06:11:22.932Z,37.4
2022-08-03T06:12:26.281Z,37.56
2022-08-03T06:13:23.056Z,37.79
2022-08-03T06:14:22.899Z,38.25
2022-08-03T06:15:23.074Z,38.61
2022-08-03T06:16:22.880Z,38.61
2022-08-03T06:17:23.315Z,38.68
2022-08-03T06:18:22.949Z,38.63
2022-08-03T06:19:22.955Z,38.28
2022-08-03T06:20:27.328Z,38.42
2022-08-03T06:21:23.036Z,38.45
2022-08-03T06:22:23.310Z,38.59
2022-08-03T06:23:52.643Z,38.78
2022-08-03T06:24:25.081Z,38.9
2022-08-03T06:25:23.005Z,38.98
2022-08-03T06:26:22.969Z,38.71
2022-08-03T06:27:36.655Z,38.38
2022-08-03T06:28:52.813Z,38.13
2022-08-03T06:29:23.025Z,38.21
2022-08-03T06:30:23.015Z,38.29
2022-08-03T06:31:23.088Z,38.57
2022-08-03T06:32:23.225Z,39.06
2022-08-03T06:33:23.040Z,39.02
2022-08-03T06:34:33.153Z,39.01
2022-08-03T06:35:23.085Z,38.95
2022-08-03T06:36:23.064Z,39.04
2022-08-03T06:37:23.309Z,39.09
2022-08-03T06:38:22.964Z,39.43
2022-08-03T06:39:23.670Z,39.88
2022-08-03T06:40:24.350Z,39.94
2022-08-03T06:41:22.944Z,39.6
2022-08-03T06:42:23.315Z,39.67
2022-08-03T06:43:23.068Z,39.97
2022-08-03T06:44:23.021Z,40.28
2022-08-03T06:45:25.988Z,40.42
2022-08-03T06:46:23.091Z,40.69
2022-08-03T06:47:23.235Z,40.95
2022-08-03T06:48:23.064Z,40.97
2022-08-03T06:49:23.060Z,41.04
2022-08-03T06:50:25.998Z,41.17
2022-08-03T06:52:06.263Z,41.48
2022-08-03T06:52:37.593Z,41.8
2022-08-03T06:53:22.995Z,42.01
2022-08-03T06:54:22.972Z,42.21
2022-08-03T06:55:22.987Z,42.21
2022-08-03T06:56:22.903Z,42.27
2022-08-03T06:57:23.232Z,42.14
2022-08-03T06:58:22.986Z,41.97
2022-08-03T07:00:07.870Z,42.11
2022-08-03T07:00:23.058Z,41.79
2022-08-03T07:01:23.077Z,41.56
2022-08-03T07:02:28.891Z,41.65
2022-08-03T07:03:23.043Z,41.92
2022-08-03T07:04:22.980Z,41.87
2022-08-03T07:05:23.057Z,41.97
2022-08-03T07:06:23.015Z,42.01
2022-08-03T07:07:23.227Z,42.16
2022-08-03T07:08:33.421Z,42.37
2022-08-03T07:09:23.013Z,42.47
2022-08-03T07:10:23.076Z,42.81
2022-08-03T07:11:22.857Z,42.87
2022-08-03T07:12:23.309Z,42.88
2022-08-03T07:13:25.869Z,42.95
2022-08-03T07:14:23.085Z,43
2022-08-03T07:15:55.249Z,43.2
2022-08-03T07:16:23.017Z,43.44
2022-08-03T07:17:23.328Z,43.61
2022-08-03T07:18:23.050Z,43.68
2022-08-03T07:19:22.987Z,43.4
2022-08-03T07:20:23.082Z,43.42
2022-08-03T07:21:23.086Z,43.42
2022-08-03T07:22:23.240Z,43.49
2022-08-03T07:23:23.048Z,43.73
2022-08-03T07:24:25.943Z,43.25
2022-08-03T07:25:23.088Z,42.78
2022-08-03T07:26:23.068Z,42.9
2022-08-03T07:27:23.300Z,42.98
2022-08-03T07:28:23.055Z,42.38
2022-08-03T07:29:23.005Z,42.11
2022-08-03T07:30:23.053Z,41.9
2022-08-03T07:31:22.944Z,41.88
2022-08-03T07:32:23.302Z,42.4
2022-08-03T07:33:23.087Z,42.95
2022-08-03T07:34:22.875Z,43.37
2022-08-03T07:35:25.878Z,43.67
2022-08-03T07:36:23.075Z,43.9
2022-08-03T07:37:23.374Z,43.93
2022-08-03T07:38:23.024Z,43.57
2022-08-03T07:39:23.010Z,43.28
2022-08-03T07:40:23.004Z,43.21
2022-08-03T07:41:22.850Z,43.29
2022-08-03T07:42:23.307Z,43.18
2022-08-03T07:43:22.982Z,42.95
2022-08-03T07:44:22.973Z,42.72
2022-08-03T07:45:22.989Z,42.82
2022-08-03T07:46:26.737Z,43.12
2022-08-03T07:47:23.246Z,43.14
2022-08-03T07:48:22.961Z,42.38
2022-08-03T07:49:23.038Z,42.26
2022-08-03T07:50:23.035Z,42.46
2022-08-03T07:51:22.877Z,42.59
2022-08-03T07:52:28.919Z,42.73
2022-08-03T07:53:22.969Z,42.84
2022-08-03T07:54:23.017Z,42.97
2022-08-03T07:55:23.061Z,43.07
2022-08-03T07:56:23.011Z,42.66
2022-08-03T07:57:23.241Z,41.37
2022-08-03T07:58:24.318Z,39.51
2022-08-03T07:59:22.976Z,37.57
2022-08-03T08:00:23.069Z,35.95
2022-08-03T08:01:22.993Z,34.69
2022-08-03T08:02:23.304Z,33.59
2022-08-03T08:03:25.853Z,32.75
2022-08-03T08:04:23.049Z,32.16
2022-08-03T08:05:22.982Z,31.65
2022-08-03T08:06:23.096Z,31.22
2022-08-03T08:07:23.233Z,30.91
2022-08-03T08:08:22.963Z,30.71
2022-08-03T08:09:22.912Z,30.19
2022-08-03T08:10:23.009Z,29.94
2022-08-03T08:11:22.876Z,29.78
2022-08-03T08:12:23.024Z,29.6
2022-08-03T08:13:23.022Z,29.43
2022-08-03T08:14:25.908Z,29.25
2022-08-03T08:15:23.063Z,29.13
2022-08-03T08:16:22.989Z,29.02
2022-08-03T08:17:23.229Z,28.97
2022-08-03T08:18:23.062Z,28.9
2022-08-03T08:19:22.956Z,28.84
2022-08-03T08:20:28.078Z,28.81
2022-08-03T08:21:23.018Z,28.69
2022-08-03T08:22:29.748Z,28.64
2022-08-03T08:23:29.849Z,28.59
2022-08-03T08:24:22.985Z,28.6
2022-08-03T08:25:26.000Z,28.55
2022-08-03T08:26:23.018Z,28.5
2022-08-03T08:27:23.299Z,28.49
2022-08-03T08:28:31.769Z,28.52
2022-08-03T08:29:22.895Z,28.49
2022-08-03T08:30:22.980Z,28.46
2022-08-03T08:31:22.968Z,28.32
2022-08-03T08:32:23.317Z,28.19
2022-08-03T08:33:24.041Z,28.05
2022-08-03T08:34:22.963Z,27.99
2022-08-03T08:35:23.007Z,27.99
2022-08-03T08:36:25.847Z,28.04
2022-08-03T08:37:23.230Z,28.14
2022-08-03T08:38:22.942Z,28.21
2022-08-03T08:39:23.019Z,28.28
2022-08-03T08:40:22.922Z,28.27
2022-08-03T08:41:22.863Z,28.3
2022-08-03T08:42:23.245Z,28.32
2022-08-03T08:43:23.013Z,28.41
2022-08-03T08:44:23.080Z,28.39
2022-08-03T08:45:22.981Z,28.34
2022-08-03T08:46:24.062Z,28.28
2022-08-03T08:47:28.930Z,28.27
2022-08-03T08:48:23.082Z,28.34
2022-08-03T08:49:23.069Z,28.43
2022-08-03T08:50:27.618Z,28.49
2022-08-03T08:51:22.960Z,28.49
2022-08-03T08:52:25.153Z,28.55
2022-08-03T08:53:27.285Z,28.62
2022-08-03T08:54:22.884Z,28.65
2022-08-03T08:55:23.013Z,28.59
2022-08-03T08:56:23.025Z,28.57
2022-08-03T08:57:41.780Z,28.67
2022-08-03T08:58:25.986Z,28.74
2022-08-03T08:59:23.045Z,28.74
2022-08-03T09:00:23.010Z,28.76
2022-08-03T09:01:23.020Z,28.8
2022-08-03T09:02:23.239Z,28.89
2022-08-03T09:03:29.864Z,28.89
2022-08-03T09:04:23.024Z,28.87
2022-08-03T09:05:41.368Z,28.8
2022-08-03T09:06:23.031Z,28.74
2022-08-03T09:07:23.229Z,28.8
2022-08-03T09:08:23.043Z,28.91
2022-08-03T09:10:00.271Z,29
2022-08-03T09:10:23.090Z,29.09
2022-08-03T09:11:23.259Z,29.16
2022-08-03T09:12:41.203Z,29.19
2022-08-03T09:13:22.954Z,29.2
2022-08-03T09:14:39.321Z,29.26
2022-08-03T09:15:22.877Z,29.31
2022-08-03T09:16:22.984Z,29.37
2022-08-03T09:17:23.235Z,29.4
2022-08-03T09:18:23.049Z,29.43
2022-08-03T09:19:23.066Z,29.44
2022-08-03T09:20:26.004Z,29.4
2022-08-03T09:21:31.109Z,29.41
2022-08-03T09:22:22.891Z,29.51
2022-08-03T09:23:59.493Z,29.6
2022-08-03T09:24:40.797Z,29.65
2022-08-03T09:25:24.766Z,29.68
2022-08-03T09:26:22.968Z,29.74
2022-08-03T09:27:23.301Z,29.8
2022-08-03T09:29:00.465Z,29.87
2022-08-03T09:29:22.968Z,29.87
2022-08-03T09:30:33.930Z,29.81
2022-08-03T09:31:25.930Z,29.8
2022-08-03T09:32:23.235Z,29.81
2022-08-03T09:33:23.149Z,29.84
2022-08-03T09:34:22.983Z,29.86
2022-08-03T09:35:33.126Z,29.93
2022-08-03T09:36:22.992Z,30.02
2022-08-03T09:37:23.267Z,30.1
2022-08-03T09:38:23.308Z,30.2
2022-08-03T09:39:41.099Z,30.15
2022-08-03T09:40:22.892Z,30.1
2022-08-03T09:41:22.943Z,30.1
2022-08-03T09:42:28.906Z,30.2
2022-08-03T09:43:22.980Z,30.24
2022-08-03T09:44:25.602Z,30.23
2022-08-03T09:45:23.042Z,30.21
2022-08-03T09:46:22.951Z,30.18
2022-08-03T09:47:28.006Z,30.18
2022-08-03T09:48:22.902Z,30.2
2022-08-03T09:49:23.131Z,30.25
2022-08-03T09:50:23.074Z,30.26
2022-08-03T09:51:33.001Z,30.32
2022-08-03T09:52:38.827Z,30.42
2022-08-03T09:53:28.940Z,30.48
2022-08-03T09:54:23.047Z,30.54
2022-08-03T09:56:33.621Z,30.59
2022-08-03T09:56:36.082Z,30.69
2022-08-03T09:57:23.227Z,30.76
2022-08-03T09:58:23.062Z,30.84
2022-08-03T09:59:22.972Z,30.92
2022-08-03T10:00:22.852Z,30.99
2022-08-03T10:01:24.307Z,31.08
2022-08-03T10:02:23.300Z,31.17
2022-08-03T10:03:23.058Z,31.16
2022-08-03T10:04:25.989Z,31.06
2022-08-03T10:05:23.064Z,30.98
2022-08-03T10:06:23.005Z,30.94
2022-08-03T10:07:23.225Z,30.92
2022-08-03T10:08:23.237Z,30.88
2022-08-03T10:09:22.957Z,30.97
2022-08-03T10:10:30.467Z,30.99
2022-08-03T10:11:22.869Z,31.01
2022-08-03T10:12:23.300Z,31.01
2022-08-03T10:13:23.088Z,31.06
2022-08-03T10:14:23.054Z,31.1
2022-08-03T10:16:24.943Z,31.18
2022-08-03T10:16:25.664Z,31.24
2022-08-03T10:17:23.296Z,31.26
2022-08-03T10:18:23.073Z,31.3
2022-08-03T10:19:22.972Z,31.35
2022-08-03T10:20:22.938Z,31.42
2022-08-03T10:21:22.891Z,31.53
2022-08-03T10:22:23.300Z,31.67
2022-08-03T10:23:23.240Z,31.81
2022-08-03T10:24:23.012Z,31.71
2022-08-03T10:25:22.950Z,31.61
2022-08-03T10:26:25.955Z,31.6
2022-08-03T10:27:23.241Z,31.66
2022-08-03T10:28:23.089Z,31.69
2022-08-03T10:29:23.025Z,31.76
2022-08-03T10:30:26.098Z,31.82
2022-08-03T10:31:23.085Z,31.89
2022-08-03T10:32:23.232Z,31.96
2022-08-03T10:33:49.919Z,32.05
2022-08-03T10:34:23.033Z,32.18
2022-08-03T10:35:23.016Z,32.28
2022-08-03T10:36:22.967Z,32.38
2022-08-03T10:37:28.821Z,32.41
2022-08-03T10:38:23.244Z,32.42
2022-08-03T10:39:23.060Z,32.52
2022-08-03T10:40:33.441Z,32.65
2022-08-03T10:41:22.937Z,32.69
2022-08-03T10:42:23.301Z,32.68
2022-08-03T10:43:23.014Z,32.62
2022-08-03T10:44:23.013Z,32.53
2022-08-03T10:45:23.070Z,32.58
2022-08-03T10:46:23.085Z,32.52
2022-08-03T10:47:23.234Z,32.37
2022-08-03T10:48:25.935Z,32.25
2022-08-03T10:49:35.128Z,32.21
2022-08-03T10:50:22.938Z,32.1
2022-08-03T10:51:22.902Z,32.12
2022-08-03T10:52:31.912Z,32.18
2022-08-03T10:53:23.060Z,32.17
2022-08-03T10:54:23.012Z,32.21
2022-08-03T10:55:23.002Z,32.27
2022-08-03T10:56:35.787Z,32.42
2022-08-03T10:57:23.449Z,32.55
2022-08-03T10:58:30.365Z,32.61
2022-08-03T10:59:27.916Z,32.86
2022-08-03T11:00:23.160Z,32.92
2022-08-03T11:01:23.090Z,32.97
2022-08-03T11:02:23.299Z,33.03
2022-08-03T11:03:22.873Z,33.18
2022-08-03T11:04:23.012Z,33.28
2022-08-03T11:05:22.905Z,33.32
2022-08-03T11:06:22.961Z,33.39
2022-08-03T11:07:23.475Z,33.47
2022-08-03T11:08:23.232Z,33.41
2022-08-03T11:09:22.939Z,33.39
2022-08-03T11:10:25.978Z,33.33
2022-08-03T11:11:22.936Z,33.17
2022-08-03T11:12:30.768Z,33.14
2022-08-03T11:13:22.928Z,33.13
2022-08-03T11:14:22.886Z,33.25
2022-08-03T11:15:22.873Z,33.24
2022-08-03T11:16:22.865Z,33.33
2022-08-03T11:17:23.233Z,33.51
2022-08-03T11:18:22.957Z,33.62
2022-08-03T11:19:22.988Z,33.77
2022-08-03T11:20:23.007Z,33.83
2022-08-03T11:21:30.307Z,33.9
2022-08-03T11:22:23.240Z,33.84
2022-08-03T11:24:02.586Z,33.87
2022-08-03T11:24:23.030Z,33.91
2022-08-03T11:25:54.248Z,33.88
2022-08-03T11:26:22.970Z,33.78
2022-08-03T11:27:23.652Z,33.74
2022-08-03T11:28:22.979Z,33.8
2022-08-03T11:29:23.053Z,33.86
2022-08-03T11:30:22.981Z,33.87
2022-08-03T11:31:48.140Z,33.78
2022-08-03T11:32:28.877Z,33.88
2022-08-03T11:33:22.948Z,34.01
2022-08-03T11:34:22.999Z,34.13
2022-08-03T11:35:23.076Z,34.02
2022-08-03T11:36:32.216Z,33.76
2022-08-03T11:37:24.060Z,33.74
2022-08-03T11:38:23.237Z,33.79
2022-08-03T11:39:22.993Z,33.95
2022-08-03T11:40:23.009Z,34.11
2022-08-03T11:41:22.940Z,34.24
2022-08-03T11:42:23.350Z,34.31
2022-08-03T11:43:30.638Z,34.24
2022-08-03T11:44:23.106Z,34.14
2022-08-03T11:45:22.969Z,34.08
2022-08-03T11:46:28.512Z,34.05
2022-08-03T11:47:23.307Z,34.1
2022-08-03T11:48:23.069Z,34.18
2022-08-03T11:49:23.187Z,34.31
2022-08-03T11:50:24.112Z,34.45
2022-08-03T11:51:22.953Z,34.56
2022-08-03T11:52:27.183Z,34.62
2022-08-03T11:53:23.244Z,34.65
2022-08-03T11:54:25.991Z,34.67
2022-08-03T11:55:23.756Z,34.73
2022-08-03T11:56:23.006Z,34.6
2022-08-03T11:57:23.242Z,34.53
2022-08-03T11:59:01.177Z,34.37
2022-08-03T12:00:10.554Z,34.42
2022-08-03T12:01:10.599Z,34.4
2022-08-03T12:02:10.807Z,34.42
2022-08-03T12:03:10.729Z,34.5
2022-08-03T12:04:10.602Z,34.58
2022-08-03T12:05:13.571Z,34.6
2022-08-03T12:06:10.618Z,34.63
2022-08-03T12:07:10.814Z,34.73
2022-08-03T12:08:10.790Z,34.66
2022-08-03T12:09:10.631Z,34.48
2022-08-03T12:10:10.642Z,34.43
2022-08-03T12:11:10.533Z,34.38
2022-08-03T12:12:10.856Z,34.32
2022-08-03T12:13:56.792Z,34.19
2022-08-03T12:14:50.466Z,34.11
2022-08-03T12:15:10.511Z,34.14
2022-08-03T12:16:13.565Z,34.32
2022-08-03T12:17:10.865Z,34.5
2022-08-03T12:18:11.083Z,34.52
2022-08-03T12:19:10.540Z,34.59
2022-08-03T12:20:10.562Z,34.65
2022-08-03T12:21:10.451Z,34.5
2022-08-03T12:22:10.803Z,34.5
2022-08-03T12:23:10.794Z,34.49
2022-08-03T12:24:10.656Z,34.35
2022-08-03T12:25:10.515Z,34.36
2022-08-03T12:26:10.577Z,34.35
2022-08-03T12:27:10.790Z,34.49
2022-08-03T12:28:36.294Z,34.68
2022-08-03T12:29:10.518Z,34.72
2022-08-03T12:30:10.443Z,34.83
2022-08-03T12:31:10.580Z,35
2022-08-03T12:32:16.550Z,35.04
2022-08-03T12:33:10.536Z,34.87
2022-08-03T12:34:10.545Z,34.94
2022-08-03T12:35:10.430Z,35.11
2022-08-03T12:36:10.541Z,35.06
2022-08-03T12:37:20.262Z,35.17
2022-08-03T12:38:10.792Z,35.34
2022-08-03T12:39:10.445Z,35.44
2022-08-03T12:40:11.939Z,35.46
2022-08-03T12:41:10.606Z,35.3
2022-08-03T12:42:10.873Z,35.14
2022-08-03T12:43:13.561Z,35.04
2022-08-03T12:44:10.618Z,35.06
2022-08-03T12:45:10.568Z,35.08
2022-08-03T12:46:10.602Z,35.1
2022-08-03T12:47:10.861Z,35.1
2022-08-03T12:48:10.627Z,35.04
2022-08-03T12:49:10.594Z,35.13
2022-08-03T12:50:10.429Z,35.27
2022-08-03T12:51:10.446Z,35.36
2022-08-03T12:52:10.505Z,35.4
2022-08-03T12:53:10.794Z,35.42
2022-08-03T12:54:13.525Z,35.41
2022-08-03T12:55:10.620Z,35.51
2022-08-03T12:56:10.602Z,35.55